sensor_id;sensor_type;location;lat;lon;timestamp;temperature;humidity
2657;DHT22;1338;48.176;11.792;2022-08-01T00:01:45;19.80;1.00
2657;DHT22;1338;48.176;11.792;2022-08-01T00:04:13;19.90;1.00
2657;DHT22;1338;48.176;11.792;2022-08-01T00:06:42;19.90;1.00
2657;DHT22;1338;48.176;11.792;2022-08-01T00:09:10;19.90;1.00
2657;DHT22;1338;48.176;11.792;2022-08-01T00:11:51;19.90;1.00
2657;DHT22;1338;48.176;11.792;2022-08-01T00:14:32;19.90;1.00
2657;DHT22;1338;48.176;11.792;2022-08-01T00:17:00;19.80;1.00
2657;DHT22;1338;48.176;11.792;2022-08-01T00:19:33;19.90;1.00
2657;DHT22;1338;48.176;11.792;2022-08-01T00:22:01;19.90;1.00
2657;DHT22;1338;48.176;11.792;2022-08-01T00:24:30;19.90;1.00
2657;DHT22;1338;48.176;11.792;2022-08-01T00:27:00;20.20;1.00
2657;DHT22;1338;48.176;11.792;2022-08-01T00:29:28;20.10;1.00
2657;DHT22;1338;48.176;11.792;2022-08-01T00:32:16;20.10;1.00
2657;DHT22;1338;48.176;11.792;2022-08-01T00:34:45;20.30;1.00
2657;DHT22;1338;48.176;11.792;2022-08-01T00:37:15;20.40;1.00
2657;DHT22;1338;48.176;11.792;2022-08-01T00:39:43;20.50;1.00
2657;DHT22;1338;48.176;11.792;2022-08-01T00:42:13;20.60;1.00
2657;DHT22;1338;48.176;11.792;2022-08-01T00:44:41;20.60;1.00
2657;DHT22;1338;48.176;11.792;2022-08-01T00:47:09;20.60;1.00
2657;DHT22;1338;48.176;11.792;2022-08-01T00:49:38;20.60;1.00
2657;DHT22;1338;48.176;11.792;2022-08-01T00:52:06;20.60;1.00
2657;DHT22;1338;48.176;11.792;2022-08-01T00:54:36;20.50;1.00
2657;DHT22;1338;48.176;11.792;2022-08-01T00:57:04;20.40;1.00
2657;DHT22;1338;48.176;11.792;2022-08-01T00:59:39;20.40;1.00
2657;DHT22;1338;48.176;11.792;2022-08-01T01:02:08;20.50;1.00
2657;DHT22;1338;48.176;11.792;2022-08-01T01:04:41;20.50;1.00
2657;DHT22;1338;48.176;11.792;2022-08-01T01:07:14;20.40;1.00
2657;DHT22;1338;48.176;11.792;2022-08-01T01:09:49;20.40;1.00
2657;DHT22;1338;48.176;11.792;2022-08-01T01:12:25;20.60;1.00
2657;DHT22;1338;48.176;11.792;2022-08-01T01:15:01;20.40;1.00
2657;DHT22;1338;48.176;11.792;2022-08-01T01:17:45;20.20;1.00
2657;DHT22;1338;48.176;11.792;2022-08-01T01:20:20;20.40;1.00
2657;DHT22;1338;48.176;11.792;2022-08-01T01:22:57;20.30;1.00
2657;DHT22;1338;48.176;11.792;2022-08-01T01:25:40;20.30;1.00
2657;DHT22;1338;48.176;11.792;2022-08-01T01:28:20;20.20;1.00
2657;DHT22;1338;48.176;11.792;2022-08-01T01:30:53;20.40;1.00
2657;DHT22;1338;48.176;11.792;2022-08-01T01:33:24;20.30;1.00
2657;DHT22;1338;48.176;11.792;2022-08-01T01:35:59;20.30;1.00
2657;DHT22;1338;48.176;11.792;2022-08-01T01:38:36;20.20;1.00
2657;DHT22;1338;48.176;11.792;2022-08-01T01:41:09;20.10;1.00
2657;DHT22;1338;48.176;11.792;2022-08-01T01:43:39;20.10;1.00
2657;DHT22;1338;48.176;11.792;2022-08-01T01:46:10;20.20;1.00
2657;DHT22;1338;48.176;11.792;2022-08-01T01:48:40;20.20;1.00
2657;DHT22;1338;48.176;11.792;2022-08-01T01:51:12;20.10;1.00
2657;DHT22;1338;48.176;11.792;2022-08-01T01:53:41;20.10;1.00
2657;DHT22;1338;48.176;11.792;2022-08-01T01:56:12;20.10;1.00
2657;DHT22;1338;48.176;11.792;2022-08-01T01:58:43;20.10;99.90
2657;DHT22;1338;48.176;11.792;2022-08-01T02:01:14;20.10;99.90
2657;DHT22;1338;48.176;11.792;2022-08-01T02:04:03;20.10;99.90
2657;DHT22;1338;48.176;11.792;2022-08-01T02:06:32;20.00;99.90
2657;DHT22;1338;48.176;11.792;2022-08-01T02:09:01;20.20;99.90
2657;DHT22;1338;48.176;11.792;2022-08-01T02:11:30;20.20;99.90
2657;DHT22;1338;48.176;11.792;2022-08-01T02:14:01;20.20;99.90
2657;DHT22;1338;48.176;11.792;2022-08-01T02:16:34;20.30;99.90
2657;DHT22;1338;48.176;11.792;2022-08-01T02:19:03;20.30;99.90
2657;DHT22;1338;48.176;11.792;2022-08-01T02:21:36;20.30;99.90
2657;DHT22;1338;48.176;11.792;2022-08-01T02:24:12;20.30;99.90
2657;DHT22;1338;48.176;11.792;2022-08-01T02:26:44;20.30;99.90
2657;DHT22;1338;48.176;11.792;2022-08-01T02:29:19;20.50;99.90
2657;DHT22;1338;48.176;11.792;2022-08-01T02:31:54;20.50;99.90
2657;DHT22;1338;48.176;11.792;2022-08-01T02:34:23;20.60;99.90
2657;DHT22;1338;48.176;11.792;2022-08-01T02:36:54;20.50;99.90
2657;DHT22;1338;48.176;11.792;2022-08-01T02:39:25;20.40;99.90
2657;DHT22;1338;48.176;11.792;2022-08-01T02:41:58;20.50;99.90
2657;DHT22;1338;48.176;11.792;2022-08-01T02:44:31;20.50;99.90
2657;DHT22;1338;48.176;11.792;2022-08-01T02:47:02;20.40;99.90
2657;DHT22;1338;48.176;11.792;2022-08-01T02:49:33;20.30;99.90
2657;DHT22;1338;48.176;11.792;2022-08-01T02:52:06;20.30;99.90
2657;DHT22;1338;48.176;11.792;2022-08-01T02:54:36;20.20;99.90
2657;DHT22;1338;48.176;11.792;2022-08-01T02:57:06;20.20;99.90
2657;DHT22;1338;48.176;11.792;2022-08-01T02:59:41;20.20;99.90
2657;DHT22;1338;48.176;11.792;2022-08-01T03:02:13;20.30;99.90
2657;DHT22;1338;48.176;11.792;2022-08-01T03:04:43;20.30;99.90
2657;DHT22;1338;48.176;11.792;2022-08-01T03:07:13;20.30;99.90
2657;DHT22;1338;48.176;11.792;2022-08-01T03:09:44;20.30;99.90
2657;DHT22;1338;48.176;11.792;2022-08-01T03:12:16;20.40;99.90
2657;DHT22;1338;48.176;11.792;2022-08-01T03:14:47;20.30;99.90
2657;DHT22;1338;48.176;11.792;2022-08-01T03:17:20;20.50;99.90
2657;DHT22;1338;48.176;11.792;2022-08-01T03:19:50;20.40;99.90
2657;DHT22;1338;48.176;11.792;2022-08-01T03:22:22;20.30;99.90
2657;DHT22;1338;48.176;11.792;2022-08-01T03:24:52;20.30;99.90
2657;DHT22;1338;48.176;11.792;2022-08-01T03:27:22;20.40;99.90
2657;DHT22;1338;48.176;11.792;2022-08-01T03:29:51;20.30;99.90
2657;DHT22;1338;48.176;11.792;2022-08-01T03:32:25;20.30;99.90
2657;DHT22;1338;48.176;11.792;2022-08-01T03:34:55;20.30;99.90
2657;DHT22;1338;48.176;11.792;2022-08-01T03:37:25;20.20;99.90
2657;DHT22;1338;48.176;11.792;2022-08-01T03:39:57;20.20;99.90
2657;DHT22;1338;48.176;11.792;2022-08-01T03:42:31;20.20;99.90
2657;DHT22;1338;48.176;11.792;2022-08-01T03:45:02;20.00;99.90
2657;DHT22;1338;48.176;11.792;2022-08-01T03:47:34;20.00;99.90
2657;DHT22;1338;48.176;11.792;2022-08-01T03:50:12;20.00;99.90
2657;DHT22;1338;48.176;11.792;2022-08-01T03:52:44;19.90;99.90
2657;DHT22;1338;48.176;11.792;2022-08-01T03:55:13;19.80;99.90
2657;DHT22;1338;48.176;11.792;2022-08-01T03:57:45;19.70;99.90
2657;DHT22;1338;48.176;11.792;2022-08-01T04:00:14;19.70;99.90
2657;DHT22;1338;48.176;11.792;2022-08-01T04:02:47;19.70;99.90
2657;DHT22;1338;48.176;11.792;2022-08-01T04:05:16;19.70;99.90
2657;DHT22;1338;48.176;11.792;2022-08-01T04:07:46;19.70;99.90
2657;DHT22;1338;48.176;11.792;2022-08-01T04:10:15;19.60;99.90
2657;DHT22;1338;48.176;11.792;2022-08-01T04:12:43;19.60;99.90
2657;DHT22;1338;48.176;11.792;2022-08-01T04:15:12;19.50;99.90
2657;DHT22;1338;48.176;11.792;2022-08-01T04:17:40;19.50;99.90
2657;DHT22;1338;48.176;11.792;2022-08-01T04:20:11;19.70;99.90
2657;DHT22;1338;48.176;11.792;2022-08-01T04:22:39;19.70;99.90
2657;DHT22;1338;48.176;11.792;2022-08-01T04:25:13;19.50;99.90
2657;DHT22;1338;48.176;11.792;2022-08-01T04:27:45;19.60;99.90
2657;DHT22;1338;48.176;11.792;2022-08-01T04:30:19;19.70;99.90
2657;DHT22;1338;48.176;11.792;2022-08-01T04:32:49;19.80;99.90
2657;DHT22;1338;48.176;11.792;2022-08-01T04:35:21;19.80;99.90
2657;DHT22;1338;48.176;11.792;2022-08-01T04:38:10;19.80;99.90
2657;DHT22;1338;48.176;11.792;2022-08-01T04:40:41;19.80;99.90
2657;DHT22;1338;48.176;11.792;2022-08-01T04:43:10;19.80;99.90
2657;DHT22;1338;48.176;11.792;2022-08-01T04:45:42;19.90;99.90
2657;DHT22;1338;48.176;11.792;2022-08-01T04:48:13;19.90;99.90
2657;DHT22;1338;48.176;11.792;2022-08-01T04:50:44;20.00;99.90
2657;DHT22;1338;48.176;11.792;2022-08-01T04:53:14;20.10;99.90
2657;DHT22;1338;48.176;11.792;2022-08-01T04:55:43;20.10;99.90
2657;DHT22;1338;48.176;11.792;2022-08-01T04:58:14;20.10;99.90
2657;DHT22;1338;48.176;11.792;2022-08-01T05:00:45;20.00;99.90
2657;DHT22;1338;48.176;11.792;2022-08-01T05:03:13;20.10;99.90
2657;DHT22;1338;48.176;11.792;2022-08-01T05:05:42;20.20;99.90
2657;DHT22;1338;48.176;11.792;2022-08-01T05:08:11;20.30;99.90
2657;DHT22;1338;48.176;11.792;2022-08-01T05:10:39;20.30;99.90
2657;DHT22;1338;48.176;11.792;2022-08-01T05:13:08;20.30;99.90
2657;DHT22;1338;48.176;11.792;2022-08-01T05:15:36;20.40;99.90
2657;DHT22;1338;48.176;11.792;2022-08-01T05:18:05;20.40;99.90
2657;DHT22;1338;48.176;11.792;2022-08-01T05:20:35;20.40;99.90
2657;DHT22;1338;48.176;11.792;2022-08-01T05:23:04;20.50;99.90
2657;DHT22;1338;48.176;11.792;2022-08-01T05:25:45;20.50;99.90
2657;DHT22;1338;48.176;11.792;2022-08-01T05:28:23;20.60;99.90
2657;DHT22;1338;48.176;11.792;2022-08-01T05:30:51;20.50;99.90
2657;DHT22;1338;48.176;11.792;2022-08-01T05:33:21;20.60;99.90
2657;DHT22;1338;48.176;11.792;2022-08-01T05:35:49;20.60;99.90
2657;DHT22;1338;48.176;11.792;2022-08-01T05:38:18;20.80;99.90
2657;DHT22;1338;48.176;11.792;2022-08-01T05:40:47;21.00;99.90
2657;DHT22;1338;48.176;11.792;2022-08-01T05:43:16;21.00;99.90
2657;DHT22;1338;48.176;11.792;2022-08-01T05:45:44;20.80;99.90
2657;DHT22;1338;48.176;11.792;2022-08-01T05:48:13;20.70;99.90
2657;DHT22;1338;48.176;11.792;2022-08-01T05:50:41;20.60;99.90
2657;DHT22;1338;48.176;11.792;2022-08-01T05:53:09;20.70;99.90
2657;DHT22;1338;48.176;11.792;2022-08-01T05:55:37;20.80;99.90
2657;DHT22;1338;48.176;11.792;2022-08-01T05:58:07;20.80;99.90
2657;DHT22;1338;48.176;11.792;2022-08-01T06:00:38;20.70;99.90
2657;DHT22;1338;48.176;11.792;2022-08-01T06:03:07;20.90;99.90
2657;DHT22;1338;48.176;11.792;2022-08-01T06:05:35;21.10;99.90
2657;DHT22;1338;48.176;11.792;2022-08-01T06:08:04;21.30;99.90
2657;DHT22;1338;48.176;11.792;2022-08-01T06:10:32;21.30;99.90
2657;DHT22;1338;48.176;11.792;2022-08-01T06:13:00;21.30;99.90
2657;DHT22;1338;48.176;11.792;2022-08-01T06:15:31;21.40;99.90
2657;DHT22;1338;48.176;11.792;2022-08-01T06:17:59;21.40;99.90
2657;DHT22;1338;48.176;11.792;2022-08-01T06:20:28;21.50;99.90
2657;DHT22;1338;48.176;11.792;2022-08-01T06:22:56;21.60;99.90
2657;DHT22;1338;48.176;11.792;2022-08-01T06:25:26;21.60;99.90
2657;DHT22;1338;48.176;11.792;2022-08-01T06:27:55;21.50;99.90
2657;DHT22;1338;48.176;11.792;2022-08-01T06:30:23;21.70;99.90
2657;DHT22;1338;48.176;11.792;2022-08-01T06:32:53;21.90;99.90
2657;DHT22;1338;48.176;11.792;2022-08-01T06:35:22;21.80;99.90
2657;DHT22;1338;48.176;11.792;2022-08-01T06:37:51;21.80;99.90
2657;DHT22;1338;48.176;11.792;2022-08-01T06:40:19;21.90;99.90
2657;DHT22;1338;48.176;11.792;2022-08-01T06:42:47;22.00;99.90
2657;DHT22;1338;48.176;11.792;2022-08-01T06:45:16;21.80;99.90
2657;DHT22;1338;48.176;11.792;2022-08-01T06:47:44;22.00;99.90
2657;DHT22;1338;48.176;11.792;2022-08-01T06:50:18;22.10;99.90
2657;DHT22;1338;48.176;11.792;2022-08-01T06:52:46;22.20;99.90
2657;DHT22;1338;48.176;11.792;2022-08-01T06:55:14;22.30;99.90
2657;DHT22;1338;48.176;11.792;2022-08-01T06:57:46;22.20;99.90
2657;DHT22;1338;48.176;11.792;2022-08-01T07:00:16;22.40;99.90
2657;DHT22;1338;48.176;11.792;2022-08-01T07:02:45;22.30;99.90
2657;DHT22;1338;48.176;11.792;2022-08-01T07:05:13;22.40;99.90
2657;DHT22;1338;48.176;11.792;2022-08-01T07:07:43;22.50;99.90
2657;DHT22;1338;48.176;11.792;2022-08-01T07:10:11;22.50;99.90
2657;DHT22;1338;48.176;11.792;2022-08-01T07:12:40;22.40;99.90
2657;DHT22;1338;48.176;11.792;2022-08-01T07:15:09;22.60;99.90
2657;DHT22;1338;48.176;11.792;2022-08-01T07:17:38;22.50;99.90
2657;DHT22;1338;48.176;11.792;2022-08-01T07:20:08;22.80;99.90
2657;DHT22;1338;48.176;11.792;2022-08-01T07:22:37;22.50;99.90
2657;DHT22;1338;48.176;11.792;2022-08-01T07:25:07;22.80;99.90
2657;DHT22;1338;48.176;11.792;2022-08-01T07:27:36;22.60;99.90
2657;DHT22;1338;48.176;11.792;2022-08-01T07:30:05;22.70;99.90
2657;DHT22;1338;48.176;11.792;2022-08-01T07:32:33;22.80;99.90
2657;DHT22;1338;48.176;11.792;2022-08-01T07:35:02;23.00;99.90
2657;DHT22;1338;48.176;11.792;2022-08-01T07:37:30;22.90;99.90
2657;DHT22;1338;48.176;11.792;2022-08-01T07:40:17;22.80;99.90
2657;DHT22;1338;48.176;11.792;2022-08-01T07:42:46;22.90;99.90
2657;DHT22;1338;48.176;11.792;2022-08-01T07:45:15;22.90;99.90
2657;DHT22;1338;48.176;11.792;2022-08-01T07:47:43;22.90;99.90
2657;DHT22;1338;48.176;11.792;2022-08-01T07:50:12;23.10;99.90
2657;DHT22;1338;48.176;11.792;2022-08-01T07:52:40;23.30;99.90
2657;DHT22;1338;48.176;11.792;2022-08-01T07:55:09;23.10;99.90
2657;DHT22;1338;48.176;11.792;2022-08-01T07:57:44;23.00;99.90
2657;DHT22;1338;48.176;11.792;2022-08-01T08:00:13;23.30;99.90
2657;DHT22;1338;48.176;11.792;2022-08-01T08:02:42;23.10;99.90
2657;DHT22;1338;48.176;11.792;2022-08-01T08:05:10;23.30;99.90
2657;DHT22;1338;48.176;11.792;2022-08-01T08:07:39;23.50;99.90
2657;DHT22;1338;48.176;11.792;2022-08-01T08:10:08;23.40;99.90
2657;DHT22;1338;48.176;11.792;2022-08-01T08:12:36;23.30;99.90
2657;DHT22;1338;48.176;11.792;2022-08-01T08:15:07;23.50;99.90
2657;DHT22;1338;48.176;11.792;2022-08-01T08:17:35;23.80;99.90
2657;DHT22;1338;48.176;11.792;2022-08-01T08:20:06;24.00;99.90
2657;DHT22;1338;48.176;11.792;2022-08-01T08:22:36;24.00;99.90
2657;DHT22;1338;48.176;11.792;2022-08-01T08:25:05;23.90;99.90
2657;DHT22;1338;48.176;11.792;2022-08-01T08:27:34;24.20;99.90
2657;DHT22;1338;48.176;11.792;2022-08-01T08:30:06;24.00;99.90
2657;DHT22;1338;48.176;11.792;2022-08-01T08:32:35;24.00;99.90
2657;DHT22;1338;48.176;11.792;2022-08-01T08:35:04;23.90;99.90
2657;DHT22;1338;48.176;11.792;2022-08-01T08:37:38;24.10;99.90
2657;DHT22;1338;48.176;11.792;2022-08-01T08:40:14;24.40;99.90
2657;DHT22;1338;48.176;11.792;2022-08-01T08:42:44;23.90;99.90
2657;DHT22;1338;48.176;11.792;2022-08-01T08:45:15;24.00;99.90
2657;DHT22;1338;48.176;11.792;2022-08-01T08:47:43;24.30;99.90
2657;DHT22;1338;48.176;11.792;2022-08-01T08:50:14;24.70;99.90
2657;DHT22;1338;48.176;11.792;2022-08-01T08:52:43;24.40;99.90
2657;DHT22;1338;48.176;11.792;2022-08-01T08:55:13;24.20;99.90
2657;DHT22;1338;48.176;11.792;2022-08-01T08:57:45;24.30;99.90
2657;DHT22;1338;48.176;11.792;2022-08-01T09:00:16;24.60;99.90
2657;DHT22;1338;48.176;11.792;2022-08-01T09:02:45;24.50;99.90
2657;DHT22;1338;48.176;11.792;2022-08-01T09:05:16;24.80;99.90
2657;DHT22;1338;48.176;11.792;2022-08-01T09:07:46;24.80;99.90
2657;DHT22;1338;48.176;11.792;2022-08-01T09:10:14;25.00;99.90
2657;DHT22;1338;48.176;11.792;2022-08-01T09:13:06;24.60;99.90
2657;DHT22;1338;48.176;11.792;2022-08-01T09:15:45;25.00;99.90
2657;DHT22;1338;48.176;11.792;2022-08-01T09:18:36;25.10;99.90
2657;DHT22;1338;48.176;11.792;2022-08-01T09:21:09;25.30;99.90
2657;DHT22;1338;48.176;11.792;2022-08-01T09:23:40;25.20;99.90
2657;DHT22;1338;48.176;11.792;2022-08-01T09:26:22;25.00;99.90
2657;DHT22;1338;48.176;11.792;2022-08-01T09:28:57;25.40;99.90
2657;DHT22;1338;48.176;11.792;2022-08-01T09:31:28;25.70;99.90
2657;DHT22;1338;48.176;11.792;2022-08-01T09:34:04;25.50;99.90
2657;DHT22;1338;48.176;11.792;2022-08-01T09:36:45;26.00;99.90
2657;DHT22;1338;48.176;11.792;2022-08-01T09:39:15;25.60;99.90
2657;DHT22;1338;48.176;11.792;2022-08-01T09:41:43;25.50;99.90
2657;DHT22;1338;48.176;11.792;2022-08-01T09:44:12;25.50;99.90
2657;DHT22;1338;48.176;11.792;2022-08-01T09:46:53;25.70;99.90
2657;DHT22;1338;48.176;11.792;2022-08-01T09:49:29;25.50;99.90
2657;DHT22;1338;48.176;11.792;2022-08-01T09:52:20;25.50;99.90
2657;DHT22;1338;48.176;11.792;2022-08-01T09:54:54;25.90;99.90
2657;DHT22;1338;48.176;11.792;2022-08-01T09:57:23;25.70;99.90
2657;DHT22;1338;48.176;11.792;2022-08-01T09:59:53;25.80;99.90
2657;DHT22;1338;48.176;11.792;2022-08-01T10:02:30;26.20;99.90
2657;DHT22;1338;48.176;11.792;2022-08-01T10:05:00;26.20;99.90
2657;DHT22;1338;48.176;11.792;2022-08-01T10:07:36;26.10;99.90
2657;DHT22;1338;48.176;11.792;2022-08-01T10:10:10;26.30;99.90
2657;DHT22;1338;48.176;11.792;2022-08-01T10:12:43;26.40;99.90
2657;DHT22;1338;48.176;11.792;2022-08-01T10:15:15;26.70;99.90
2657;DHT22;1338;48.176;11.792;2022-08-01T10:17:52;26.80;99.90
2657;DHT22;1338;48.176;11.792;2022-08-01T10:20:25;26.30;99.90
2657;DHT22;1338;48.176;11.792;2022-08-01T10:23:00;26.40;99.90
2657;DHT22;1338;48.176;11.792;2022-08-01T10:25:36;26.60;99.90
2657;DHT22;1338;48.176;11.792;2022-08-01T10:28:14;26.50;99.90
2657;DHT22;1338;48.176;11.792;2022-08-01T10:30:50;26.80;99.90
2657;DHT22;1338;48.176;11.792;2022-08-01T10:33:23;27.20;99.90
2657;DHT22;1338;48.176;11.792;2022-08-01T10:36:12;26.80;99.90
2657;DHT22;1338;48.176;11.792;2022-08-01T10:38:42;26.70;99.90
2657;DHT22;1338;48.176;11.792;2022-08-01T10:41:13;26.40;99.90
2657;DHT22;1338;48.176;11.792;2022-08-01T10:43:42;27.00;99.90
2657;DHT22;1338;48.176;11.792;2022-08-01T10:46:13;26.80;99.90
2657;DHT22;1338;48.176;11.792;2022-08-01T10:48:49;27.30;99.90
2657;DHT22;1338;48.176;11.792;2022-08-01T10:51:22;27.40;99.90
2657;DHT22;1338;48.176;11.792;2022-08-01T10:54:12;27.10;99.90
2657;DHT22;1338;48.176;11.792;2022-08-01T10:56:43;27.50;99.90
2657;DHT22;1338;48.176;11.792;2022-08-01T10:59:15;27.00;99.90
2657;DHT22;1338;48.176;11.792;2022-08-01T11:02:08;26.90;99.90
2657;DHT22;1338;48.176;11.792;2022-08-01T11:04:49;26.90;99.90
2657;DHT22;1338;48.176;11.792;2022-08-01T11:07:23;27.70;99.90
2657;DHT22;1338;48.176;11.792;2022-08-01T11:10:04;27.70;99.90
2657;DHT22;1338;48.176;11.792;2022-08-01T11:12:42;27.40;99.90
2657;DHT22;1338;48.176;11.792;2022-08-01T11:15:24;28.10;99.90
2657;DHT22;1338;48.176;11.792;2022-08-01T11:17:58;27.90;99.90
2657;DHT22;1338;48.176;11.792;2022-08-01T11:20:29;27.60;99.90
2657;DHT22;1338;48.176;11.792;2022-08-01T11:23:24;27.80;99.90
2657;DHT22;1338;48.176;11.792;2022-08-01T11:26:23;28.00;99.90
2657;DHT22;1338;48.176;11.792;2022-08-01T11:29:13;28.30;99.90
2657;DHT22;1338;48.176;11.792;2022-08-01T11:31:48;28.20;99.90
2657;DHT22;1338;48.176;11.792;2022-08-01T11:34:19;27.80;99.90
2657;DHT22;1338;48.176;11.792;2022-08-01T11:36:49;28.40;99.90
2657;DHT22;1338;48.176;11.792;2022-08-01T11:39:26;28.30;99.90
2657;DHT22;1338;48.176;11.792;2022-08-01T11:42:18;28.40;99.90
2657;DHT22;1338;48.176;11.792;2022-08-01T11:44:51;28.70;99.90
2657;DHT22;1338;48.176;11.792;2022-08-01T11:47:43;28.60;99.90
2657;DHT22;1338;48.176;11.792;2022-08-01T11:50:34;28.20;99.90
2657;DHT22;1338;48.176;11.792;2022-08-01T11:53:06;27.70;99.90
2657;DHT22;1338;48.176;11.792;2022-08-01T11:55:45;28.40;99.90
2657;DHT22;1338;48.176;11.792;2022-08-01T11:58:22;27.90;99.90
2657;DHT22;1338;48.176;11.792;2022-08-01T12:00:58;27.90;99.90
2657;DHT22;1338;48.176;11.792;2022-08-01T12:03:28;27.40;99.90
2657;DHT22;1338;48.176;11.792;2022-08-01T12:06:00;28.30;99.90
2657;DHT22;1338;48.176;11.792;2022-08-01T12:08:31;28.30;99.90
2657;DHT22;1338;48.176;11.792;2022-08-01T12:11:03;28.60;99.90
2657;DHT22;1338;48.176;11.792;2022-08-01T12:13:39;27.80;99.90
2657;DHT22;1338;48.176;11.792;2022-08-01T12:16:09;28.60;99.90
2657;DHT22;1338;48.176;11.792;2022-08-01T12:18:38;29.40;99.90
2657;DHT22;1338;48.176;11.792;2022-08-01T12:21:07;28.80;99.90
2657;DHT22;1338;48.176;11.792;2022-08-01T12:23:36;28.20;99.90
2657;DHT22;1338;48.176;11.792;2022-08-01T12:26:05;28.00;99.90
2657;DHT22;1338;48.176;11.792;2022-08-01T12:28:39;28.40;99.90
2657;DHT22;1338;48.176;11.792;2022-08-01T12:31:08;28.10;99.90
2657;DHT22;1338;48.176;11.792;2022-08-01T12:33:38;27.70;99.90
2657;DHT22;1338;48.176;11.792;2022-08-01T12:36:07;29.00;99.90
2657;DHT22;1338;48.176;11.792;2022-08-01T12:38:41;29.40;99.90
2657;DHT22;1338;48.176;11.792;2022-08-01T12:41:10;28.60;99.90
2657;DHT22;1338;48.176;11.792;2022-08-01T12:43:39;29.40;99.90
2657;DHT22;1338;48.176;11.792;2022-08-01T12:46:08;30.50;99.90
2657;DHT22;1338;48.176;11.792;2022-08-01T12:48:43;30.60;99.90
2657;DHT22;1338;48.176;11.792;2022-08-01T12:51:11;30.40;99.90
2657;DHT22;1338;48.176;11.792;2022-08-01T12:53:39;30.20;99.90
2657;DHT22;1338;48.176;11.792;2022-08-01T12:56:10;30.70;99.90
2657;DHT22;1338;48.176;11.792;2022-08-01T12:58:39;29.80;99.90
2657;DHT22;1338;48.176;11.792;2022-08-01T13:01:09;29.00;99.90
2657;DHT22;1338;48.176;11.792;2022-08-01T13:03:38;28.90;99.90
2657;DHT22;1338;48.176;11.792;2022-08-01T13:06:11;28.80;99.90
2657;DHT22;1338;48.176;11.792;2022-08-01T13:08:42;28.50;99.90
2657;DHT22;1338;48.176;11.792;2022-08-01T13:11:13;28.40;99.90
2657;DHT22;1338;48.176;11.792;2022-08-01T13:13:45;28.50;99.90
2657;DHT22;1338;48.176;11.792;2022-08-01T13:16:16;28.50;99.90
2657;DHT22;1338;48.176;11.792;2022-08-01T13:19:04;28.40;99.90
2657;DHT22;1338;48.176;11.792;2022-08-01T13:21:33;28.10;99.90
2657;DHT22;1338;48.176;11.792;2022-08-01T13:24:25;27.60;99.90
2657;DHT22;1338;48.176;11.792;2022-08-01T13:26:57;27.40;99.90
2657;DHT22;1338;48.176;11.792;2022-08-01T13:29:31;27.10;99.90
2657;DHT22;1338;48.176;11.792;2022-08-01T13:32:04;27.00;99.90
2657;DHT22;1338;48.176;11.792;2022-08-01T13:35:02;26.60;99.90
2657;DHT22;1338;48.176;11.792;2022-08-01T13:37:31;26.00;99.90
2657;DHT22;1338;48.176;11.792;2022-08-01T13:39:59;26.00;99.90
2657;DHT22;1338;48.176;11.792;2022-08-01T13:42:30;26.10;99.90
2657;DHT22;1338;48.176;11.792;2022-08-01T13:44:58;26.10;99.90
2657;DHT22;1338;48.176;11.792;2022-08-01T13:47:29;26.20;99.90
2657;DHT22;1338;48.176;11.792;2022-08-01T13:49:58;26.40;99.90
2657;DHT22;1338;48.176;11.792;2022-08-01T13:52:30;26.50;99.90
2657;DHT22;1338;48.176;11.792;2022-08-01T13:54:59;26.40;99.90
2657;DHT22;1338;48.176;11.792;2022-08-01T13:57:27;26.40;99.90
2657;DHT22;1338;48.176;11.792;2022-08-01T14:00:07;26.20;99.90
2657;DHT22;1338;48.176;11.792;2022-08-01T14:02:38;26.20;99.90
2657;DHT22;1338;48.176;11.792;2022-08-01T14:05:07;25.90;99.90
2657;DHT22;1338;48.176;11.792;2022-08-01T14:07:35;25.80;99.90
2657;DHT22;1338;48.176;11.792;2022-08-01T14:10:04;26.00;99.90
2657;DHT22;1338;48.176;11.792;2022-08-01T14:12:46;26.20;99.90
2657;DHT22;1338;48.176;11.792;2022-08-01T14:15:17;26.00;99.90
2657;DHT22;1338;48.176;11.792;2022-08-01T14:18:06;26.20;99.90
2657;DHT22;1338;48.176;11.792;2022-08-01T14:20:36;26.20;99.90
2657;DHT22;1338;48.176;11.792;2022-08-01T14:23:05;26.10;99.90
2657;DHT22;1338;48.176;11.792;2022-08-01T14:25:36;26.00;99.90
2657;DHT22;1338;48.176;11.792;2022-08-01T14:28:24;26.10;99.90
2657;DHT22;1338;48.176;11.792;2022-08-01T14:30:57;25.90;99.90
2657;DHT22;1338;48.176;11.792;2022-08-01T14:33:26;26.00;99.90
2657;DHT22;1338;48.176;11.792;2022-08-01T14:35:54;25.90;99.90
2657;DHT22;1338;48.176;11.792;2022-08-01T14:38:43;26.10;99.90
2657;DHT22;1338;48.176;11.792;2022-08-01T14:41:12;26.10;99.90
2657;DHT22;1338;48.176;11.792;2022-08-01T14:43:41;26.00;99.90
2657;DHT22;1338;48.176;11.792;2022-08-01T14:46:11;25.60;99.90
2657;DHT22;1338;48.176;11.792;2022-08-01T14:48:39;25.50;99.90
2657;DHT22;1338;48.176;11.792;2022-08-01T14:51:08;25.70;99.90
2657;DHT22;1338;48.176;11.792;2022-08-01T14:53:36;25.70;99.90
2657;DHT22;1338;48.176;11.792;2022-08-01T14:56:08;25.70;99.90
2657;DHT22;1338;48.176;11.792;2022-08-01T14:58:37;25.70;99.90
2657;DHT22;1338;48.176;11.792;2022-08-01T15:01:05;26.90;99.90
2657;DHT22;1338;48.176;11.792;2022-08-01T15:03:34;26.60;99.90
2657;DHT22;1338;48.176;11.792;2022-08-01T15:06:03;26.20;99.90
2657;DHT22;1338;48.176;11.792;2022-08-01T15:08:33;25.90;99.90
2657;DHT22;1338;48.176;11.792;2022-08-01T15:11:01;26.10;99.90
2657;DHT22;1338;48.176;11.792;2022-08-01T15:13:29;25.10;99.90
2657;DHT22;1338;48.176;11.792;2022-08-01T15:15:58;24.80;99.90
2657;DHT22;1338;48.176;11.792;2022-08-01T15:18:26;24.50;99.90
2657;DHT22;1338;48.176;11.792;2022-08-01T15:20:56;24.50;99.90
2657;DHT22;1338;48.176;11.792;2022-08-01T15:23:25;24.40;99.90
2657;DHT22;1338;48.176;11.792;2022-08-01T15:25:53;24.70;99.90
2657;DHT22;1338;48.176;11.792;2022-08-01T15:28:21;24.20;99.90
2657;DHT22;1338;48.176;11.792;2022-08-01T15:30:50;24.40;99.90
2657;DHT22;1338;48.176;11.792;2022-08-01T15:33:18;24.60;99.90
2657;DHT22;1338;48.176;11.792;2022-08-01T15:35:48;24.50;99.90
2657;DHT22;1338;48.176;11.792;2022-08-01T15:38:20;24.30;99.90
2657;DHT22;1338;48.176;11.792;2022-08-01T15:40:49;24.30;99.90
2657;DHT22;1338;48.176;11.792;2022-08-01T15:43:17;24.60;99.90
2657;DHT22;1338;48.176;11.792;2022-08-01T15:45:46;24.40;99.90
2657;DHT22;1338;48.176;11.792;2022-08-01T15:48:15;24.30;99.90
2657;DHT22;1338;48.176;11.792;2022-08-01T15:50:43;24.40;99.90
2657;DHT22;1338;48.176;11.792;2022-08-01T15:53:12;24.30;99.90
2657;DHT22;1338;48.176;11.792;2022-08-01T15:55:41;23.90;99.90
2657;DHT22;1338;48.176;11.792;2022-08-01T15:58:18;23.30;99.90
2657;DHT22;1338;48.176;11.792;2022-08-01T16:00:47;23.00;99.90
2657;DHT22;1338;48.176;11.792;2022-08-01T16:03:15;22.70;99.90
2657;DHT22;1338;48.176;11.792;2022-08-01T16:05:43;22.80;99.90
2657;DHT22;1338;48.176;11.792;2022-08-01T16:08:12;22.80;99.90
2657;DHT22;1338;48.176;11.792;2022-08-01T16:10:42;22.20;99.90
2657;DHT22;1338;48.176;11.792;2022-08-01T16:13:10;21.80;1.00
2657;DHT22;1338;48.176;11.792;2022-08-01T16:15:39;21.80;1.00
2657;DHT22;1338;48.176;11.792;2022-08-01T16:18:10;21.40;1.00